Time;durP1;ratioP1;P1;durP2;ratioP2;P2;SDS_P1;SDS_P2;PMS_P1;PMS_P2;Temp;Humidity;BMP_temperature;BMP_pressure;BME280_temperature;BME280_humidity;BME280_pressure;Samples;Min_cycle;Max_cycle;Signal;HPM_P1;HPM_P2
2023/09/25 00:01:02;;;;;;;9.98;9.07;;;;;;;;;;6186732;23;20467;-70
2023/09/25 00:03:28;;;;;;;11.30;9.32;;;;;;;;;;6212727;23;20107;-71
2023/09/25 00:05:54;;;;;;;12.52;11.23;;;;;;;;;;6212656;23;20095;-70
2023/09/25 00:08:20;;;;;;;14.05;9.20;;;;;;;;;;6186308;23;20098;-70
2023/09/25 00:10:46;;;;;;;10.38;9.38;;;;;;;;;;6212687;23;20015;-71
2023/09/25 00:13:12;;;;;;;10.93;9.60;;;;;;;;;;6212638;23;20027;-70
2023/09/25 00:15:43;;;;;;;11.90;10.23;;;;;;;;;;6212569;23;20008;-71
2023/09/25 00:18:09;;;;;;;11.25;10.23;;;;;;;;;;6212835;23;20365;-71
2023/09/25 00:20:35;;;;;;;13.02;10.02;;;;;;;;;;6213026;23;20008;-69
2023/09/25 00:23:01;;;;;;;11.88;9.35;;;;;;;;;;6186500;23;20028;-71
2023/09/25 00:25:28;;;;;;;11.23;10.20;;;;;;;;;;6186340;23;20039;-72
2023/09/25 00:27:54;;;;;;;12.40;9.95;;;;;;;;;;6185864;23;20017;-71
2023/09/25 00:30:20;;;;;;;17.60;10.95;;;;;;;;;;6212692;23;20016;-71
2023/09/25 00:32:48;;;;;;;12.35;10.27;;;;;;;;;;6212147;23;20111;-72
2023/09/25 00:35:15;;;;;;;13.18;10.63;;;;;;;;;;6212468;23;20112;-70
2023/09/25 00:37:41;;;;;;;12.43;10.20;;;;;;;;;;6185717;23;20012;-71
2023/09/25 00:40:13;;;;;;;13.07;10.20;;;;;;;;;;6212546;23;20009;-71
2023/09/25 00:42:42;;;;;;;12.75;10.07;;;;;;;;;;6212122;23;20020;-71
2023/09/25 00:45:09;;;;;;;13.15;9.57;;;;;;;;;;6212665;23;20013;-71
2023/09/25 00:47:34;;;;;;;22.60;9.95;;;;;;;;;;6160904;23;20017;-70
2023/09/25 00:50:03;;;;;;;16.45;10.27;;;;;;;;;;6186230;23;20013;-70
2023/09/25 00:52:31;;;;;;;12.98;10.60;;;;;;;;;;6185892;23;20405;-72
2023/09/25 00:54:58;;;;;;;12.10;10.07;;;;;;;;;;6212238;23;20009;-71
2023/09/25 00:57:24;;;;;;;15.95;12.13;;;;;;;;;;6161112;23;20040;-71
2023/09/25 00:59:50;;;;;;;13.60;11.65;;;;;;;;;;6161242;23;20008;-71
2023/09/25 01:02:17;;;;;;;18.70;12.57;;;;;;;;;;6212048;23;20027;-72
2023/09/25 01:04:43;;;;;;;14.05;12.75;;;;;;;;;;6212202;23;20013;-70
2023/09/25 01:07:09;;;;;;;14.52;13.23;;;;;;;;;;6212244;23;20016;-71
2023/09/25 01:09:35;;;;;;;15.88;13.60;;;;;;;;;;6185957;23;20083;-71
2023/09/25 01:12:01;;;;;;;18.98;17.17;;;;;;;;;;6185803;23;20016;-70
2023/09/25 01:14:27;;;;;;;15.20;13.68;;;;;;;;;;6161113;23;20024;-72
2023/09/25 01:16:53;;;;;;;12.65;11.30;;;;;;;;;;6211882;23;20367;-71
2023/09/25 01:19:19;;;;;;;12.68;10.13;;;;;;;;;;6185756;23;20469;-72
2023/09/25 01:21:46;;;;;;;8.93;7.63;;;;;;;;;;6212016;23;20031;-70
2023/09/25 01:24:12;;;;;;;6.68;6.25;;;;;;;;;;6213369;23;20021;-72
2023/09/25 01:26:38;;;;;;;5.53;5.20;;;;;;;;;;6212040;23;20413;-74
2023/09/25 01:29:04;;;;;;;5.88;5.28;;;;;;;;;;6212258;23;20019;-72
2023/09/25 01:31:30;;;;;;;7.00;4.75;;;;;;;;;;6211980;23;20453;-73
2023/09/25 01:33:57;;;;;;;7.70;6.07;;;;;;;;;;6185605;23;20012;-72
2023/09/25 01:36:23;;;;;;;9.02;5.88;;;;;;;;;;6185735;23;20013;-72
2023/09/25 01:38:50;;;;;;;4.30;3.80;;;;;;;;;;6211995;23;20020;-74
2023/09/25 01:41:16;;;;;;;3.80;3.60;;;;;;;;;;6185520;23;20067;-73
2023/09/25 01:43:43;;;;;;;3.63;3.42;;;;;;;;;;6211931;23;20009;-73
2023/09/25 01:46:09;;;;;;;3.55;2.95;;;;;;;;;;6185600;23;20012;-72
2023/09/25 01:48:36;;;;;;;3.17;2.90;;;;;;;;;;6185164;23;20016;-73
2023/09/25 01:51:09;;;;;;;2.97;2.78;;;;;;;;;;6212133;23;20019;-72
2023/09/25 01:53:35;;;;;;;2.58;2.38;;;;;;;;;;6185118;23;20016;-73
2023/09/25 01:56:11;;;;;;;2.80;2.60;;;;;;;;;;6185525;23;20024;-74
2023/09/25 01:58:38;;;;;;;2.35;2.25;;;;;;;;;;6185080;23;20472;-73
2023/09/25 02:01:04;;;;;;;3.17;2.35;;;;;;;;;;6160842;23;20020;-73
2023/09/25 02:03:30;;;;;;;2.53;2.30;;;;;;;;;;6185354;23;20025;-73
2023/09/25 02:05:57;;;;;;;2.33;2.22;;;;;;;;;;6185222;23;20008;-73
2023/09/25 02:08:24;;;;;;;3.60;2.13;;;;;;;;;;6185622;23;20040;-73
2023/09/25 02:10:51;;;;;;;1.95;1.85;;;;;;;;;;6162568;23;20047;-73
2023/09/25 02:13:17;;;;;;;2.95;2.20;;;;;;;;;;6214494;23;20027;-75
2023/09/25 02:15:43;;;;;;;2.95;2.10;;;;;;;;;;6215485;23;20024;-73
2023/09/25 02:18:09;;;;;;;2.22;2.10;;;;;;;;;;6215238;23;20012;-73
2023/09/25 02:20:35;;;;;;;2.38;2.13;;;;;;;;;;6185712;23;20068;-71
2023/09/25 02:23:01;;;;;;;3.08;1.80;;;;;;;;;;6135902;23;20432;-72
2023/09/25 02:25:28;;;;;;;2.13;2.03;;;;;;;;;;6211680;23;20067;-73
2023/09/25 02:27:54;;;;;;;2.22;2.10;;;;;;;;;;6212380;23;20016;-72
2023/09/25 02:30:20;;;;;;;1.92;1.83;;;;;;;;;;6160069;23;20472;-71
2023/09/25 02:32:46;;;;;;;1.77;1.67;;;;;;;;;;6211114;23;20024;-72
2023/09/25 02:35:13;;;;;;;2.15;2.05;;;;;;;;;;6211801;23;20008;-73
2023/09/25 02:37:40;;;;;;;1.85;1.75;;;;;;;;;;6160257;23;20647;-71
2023/09/25 02:40:07;;;;;;;1.85;1.75;;;;;;;;;;6211078;23;20401;-72
2023/09/25 02:42:33;;;;;;;2.25;2.13;;;;;;;;;;6187328;23;20021;-71
2023/09/25 02:44:59;;;;;;;3.03;2.10;;;;;;;;;;6214552;23;20015;-73
2023/09/25 02:47:26;;;;;;;2.25;2.05;;;;;;;;;;6212332;23;20063;-72
2023/09/25 02:49:52;;;;;;;2.08;1.95;;;;;;;;;;6211469;23;20023;-73
2023/09/25 02:52:17;;;;;;;2.22;1.98;;;;;;;;;;6211308;23;20446;-71
2023/09/25 02:54:43;;;;;;;2.47;2.25;;;;;;;;;;6211346;23;20017;-71
2023/09/25 02:57:09;;;;;;;2.75;2.38;;;;;;;;;;6184983;23;20015;-72
2023/09/25 02:59:35;;;;;;;2.20;2.10;;;;;;;;;;6184826;23;20016;-73
2023/09/25 03:02:02;;;;;;;2.63;2.17;;;;;;;;;;6211443;23;20364;-73
2023/09/25 03:04:28;;;;;;;2.40;2.20;;;;;;;;;;6185135;23;20091;-73
2023/09/25 03:06:56;;;;;;;2.97;2.58;;;;;;;;;;6211436;23;20043;-72
2023/09/25 03:09:22;;;;;;;2.38;2.28;;;;;;;;;;6185567;23;20108;-72
2023/09/25 03:11:48;;;;;;;2.50;2.35;;;;;;;;;;6211182;23;20012;-73
2023/09/25 03:14:15;;;;;;;3.00;2.80;;;;;;;;;;6211514;23;20362;-72
2023/09/25 03:16:41;;;;;;;2.90;2.70;;;;;;;;;;6184825;23;20012;-71
2023/09/25 03:19:07;;;;;;;2.92;2.67;;;;;;;;;;6211406;23;20012;-73
2023/09/25 03:21:34;;;;;;;4.68;2.70;;;;;;;;;;6211451;23;20016;-72
2023/09/25 03:24:00;;;;;;;2.67;2.53;;;;;;;;;;6211166;23;20024;-74
2023/09/25 03:26:26;;;;;;;4.72;3.00;;;;;;;;;;6211530;23;20357;-75
2023/09/25 03:28:52;;;;;;;3.42;2.53;;;;;;;;;;6211782;23;20435;-73
2023/09/25 03:31:18;;;;;;;3.13;2.63;;;;;;;;;;6212259;23;20088;-73
2023/09/25 03:33:44;;;;;;;3.03;2.72;;;;;;;;;;6181023;23;20086;-72
2023/09/25 03:36:11;;;;;;;3.97;3.03;;;;;;;;;;6157097;23;20358;-72
2023/09/25 03:38:37;;;;;;;3.97;3.00;;;;;;;;;;6181011;23;20020;-73
2023/09/25 03:41:03;;;;;;;5.55;3.03;;;;;;;;;;6180595;23;20016;-72
2023/09/25 03:43:29;;;;;;;8.80;4.00;;;;;;;;;;6181633;23;20421;-73
2023/09/25 03:45:55;;;;;;;6.15;3.40;;;;;;;;;;6182756;23;20013;-72
2023/09/25 03:48:22;;;;;;;9.98;5.18;;;;;;;;;;6181705;23;20028;-73
2023/09/25 03:50:48;;;;;;;5.07;3.92;;;;;;;;;;6156478;23;20013;-73
2023/09/25 03:53:14;;;;;;;9.70;5.13;;;;;;;;;;6182939;23;20013;-73
2023/09/25 03:55:40;;;;;;;5.68;4.88;;;;;;;;;;6181331;23;20009;-73
2023/09/25 03:58:06;;;;;;;3.78;3.30;;;;;;;;;;6156609;23;20399;-72
2023/09/25 04:00:32;;;;;;;5.07;3.50;;;;;;;;;;6181756;23;20020;-72
2023/09/25 04:02:58;;;;;;;5.50;3.58;;;;;;;;;;6182560;23;20415;-73
2023/09/25 04:05:24;;;;;;;4.20;3.63;;;;;;;;;;6182969;23;20020;-73
2023/09/25 04:07:51;;;;;;;4.00;3.70;;;;;;;;;;6182810;23;20048;-72
2023/09/25 04:10:18;;;;;;;6.97;4.00;;;;;;;;;;6181407;23;20126;-72
2023/09/25 04:12:45;;;;;;;4.55;3.60;;;;;;;;;;6183038;23;20409;-79
2023/09/25 04:15:16;;;;;;;6.07;3.70;;;;;;;;;;6183854;23;20013;-78
2023/09/25 04:17:42;;;;;;;;;;;;;;;;;;6185104;23;20095;-78
2023/09/25 04:20:17;;;;;;;4.72;4.30;;;;;;;;;;6157153;23;20004;-77
2023/09/25 04:22:44;;;;;;;6.15;4.40;;;;;;;;;;6181249;23;20040;-77
2023/09/25 04:25:20;;;;;;;4.38;4.07;;;;;;;;;;6157019;23;20059;-78
2023/09/25 04:27:47;;;;;;;4.32;3.92;;;;;;;;;;6108677;23;20099;-77
2023/09/25 04:30:14;;;;;;;5.03;3.67;;;;;;;;;;6180445;23;20017;-76
2023/09/25 04:32:44;;;;;;;6.93;4.10;;;;;;;;;;6156142;23;20104;-78
2023/09/25 04:35:12;;;;;;;3.85;3.55;;;;;;;;;;6184917;23;20441;-78
2023/09/25 04:37:38;;;;;;;5.15;3.63;;;;;;;;;;6179522;23;20086;-79
2023/09/25 04:40:10;;;;;;;4.60;4.20;;;;;;;;;;6182588;23;20013;-80
2023/09/25 04:42:37;;;;;;;3.50;3.20;;;;;;;;;;6156938;23;20461;-78
2023/09/25 04:45:03;;;;;;;3.72;3.40;;;;;;;;;;6181166;23;20020;-78
2023/09/25 04:47:30;;;;;;;4.28;3.28;;;;;;;;;;6155681;23;20017;-77
2023/09/25 04:49:56;;;;;;;3.08;2.90;;;;;;;;;;6155848;23;20041;-79
2023/09/25 04:52:23;;;;;;;3.30;3.10;;;;;;;;;;6155742;23;20013;-79
2023/09/25 04:54:49;;;;;;;3.55;3.25;;;;;;;;;;6181114;23;20013;-80
2023/09/25 04:57:16;;;;;;;3.25;3.03;;;;;;;;;;6181107;23;20008;-78
2023/09/25 04:59:42;;;;;;;2.30;2.20;;;;;;;;;;6182037;23;20025;-73
2023/09/25 05:02:08;;;;;;;3.22;3.00;;;;;;;;;;6181166;23;20016;-73
2023/09/25 05:04:36;;;;;;;3.10;2.90;;;;;;;;;;6179828;23;20024;-74
2023/09/25 05:07:02;;;;;;;3.38;3.17;;;;;;;;;;6179979;23;20016;-73
2023/09/25 05:09:28;;;;;;;6.22;3.78;;;;;;;;;;6180980;23;20024;-74
2023/09/25 05:11:54;;;;;;;3.67;3.35;;;;;;;;;;6155366;23;20013;-72
2023/09/25 05:14:20;;;;;;;3.92;3.63;;;;;;;;;;6180744;23;20031;-73
2023/09/25 05:16:47;;;;;;;4.13;3.58;;;;;;;;;;6180522;23;20013;-73
2023/09/25 05:19:13;;;;;;;3.63;3.33;;;;;;;;;;6180613;23;20013;-73
2023/09/25 05:21:39;;;;;;;3.50;3.20;;;;;;;;;;6180464;23;20021;-73
2023/09/25 05:24:06;;;;;;;3.38;3.17;;;;;;;;;;6182104;23;20020;-73
2023/09/25 05:26:35;;;;;;;2.67;2.47;;;;;;;;;;6155854;23;20019;-72
2023/09/25 05:29:02;;;;;;;2.70;2.50;;;;;;;;;;6180158;23;20017;-73
2023/09/25 05:31:28;;;;;;;4.18;2.92;;;;;;;;;;6181875;23;20020;-73
2023/09/25 05:33:54;;;;;;;4.43;2.35;;;;;;;;;;6211810;23;20020;-72
2023/09/25 05:36:20;;;;;;;3.38;2.63;;;;;;;;;;6161206;23;20035;-75
2023/09/25 05:38:47;;;;;;;3.00;2.80;;;;;;;;;;6186739;23;20016;-73
2023/09/25 05:41:14;;;;;;;3.88;3.58;;;;;;;;;;6212333;23;20083;-73
2023/09/25 05:43:40;;;;;;;6.80;3.00;;;;;;;;;;6211982;23;20024;-75
2023/09/25 05:46:07;;;;;;;3.97;3.10;;;;;;;;;;6185777;23;20019;-75
2023/09/25 05:48:33;;;;;;;5.90;3.08;;;;;;;;;;6185847;23;20019;-74
2023/09/25 05:50:59;;;;;;;4.55;3.13;;;;;;;;;;6185390;23;20008;-75
2023/09/25 05:53:25;;;;;;;7.50;3.70;;;;;;;;;;6185419;23;20060;-75
2023/09/25 05:55:51;;;;;;;3.75;3.50;;;;;;;;;;6211717;23;20032;-74
2023/09/25 05:58:17;;;;;;;4.28;3.90;;;;;;;;;;6186038;23;20016;-75
2023/09/25 06:00:46;;;;;;;6.18;3.60;;;;;;;;;;6162107;23;20013;-75
2023/09/25 06:03:13;;;;;;;3.50;3.22;;;;;;;;;;6212489;23;20020;-75
2023/09/25 06:05:39;;;;;;;4.25;3.20;;;;;;;;;;6193431;23;20012;-74
2023/09/25 06:08:06;;;;;;;4.15;3.75;;;;;;;;;;6199248;23;20528;-75
2023/09/25 06:10:34;;;;;;;3.45;3.15;;;;;;;;;;6197845;23;20020;-77
2023/09/25 06:13:01;;;;;;;3.65;3.35;;;;;;;;;;6212934;23;20012;-75
2023/09/25 06:15:30;;;;;;;4.40;3.60;;;;;;;;;;6211516;23;20019;-76
2023/09/25 06:17:58;;;;;;;3.80;3.47;;;;;;;;;;6161304;23;20016;-75
2023/09/25 06:20:26;;;;;;;3.80;3.33;;;;;;;;;;6186322;23;20023;-75
2023/09/25 06:22:52;;;;;;;4.55;3.67;;;;;;;;;;6160993;23;20112;-75
2023/09/25 06:25:18;;;;;;;3.25;3.05;;;;;;;;;;6185644;23;20020;-75
2023/09/25 06:27:46;;;;;;;5.70;3.33;;;;;;;;;;6185808;23;20112;-75
2023/09/25 06:30:12;;;;;;;3.70;3.38;;;;;;;;;;6211848;23;20016;-74
2023/09/25 06:32:39;;;;;;;3.83;3.17;;;;;;;;;;6130654;23;20025;-75
2023/09/25 06:35:06;;;;;;;5.22;3.47;;;;;;;;;;6156078;23;20008;-75
2023/09/25 06:37:32;;;;;;;4.68;3.78;;;;;;;;;;6180106;23;20028;-75
2023/09/25 06:39:58;;;;;;;4.88;3.50;;;;;;;;;;6181422;23;20009;-76
2023/09/25 06:42:24;;;;;;;3.58;3.30;;;;;;;;;;6182786;23;20071;-75
2023/09/25 06:44:50;;;;;;;3.47;3.17;;;;;;;;;;6154740;23;20023;-76
2023/09/25 06:47:16;;;;;;;4.25;3.83;;;;;;;;;;6130627;23;20017;-76
2023/09/25 06:49:42;;;;;;;6.38;4.68;;;;;;;;;;6181566;23;20017;-75
2023/09/25 06:52:08;;;;;;;5.45;4.10;;;;;;;;;;6180338;23;20314;-76
2023/09/25 06:54:34;;;;;;;6.57;3.33;;;;;;;;;;6179969;23;20028;-75
2023/09/25 06:57:00;;;;;;;3.00;2.80;;;;;;;;;;6178456;23;20478;-75
2023/09/25 06:59:26;;;;;;;3.55;3.30;;;;;;;;;;6181704;23;20095;-75
2023/09/25 07:01:52;;;;;;;5.88;3.58;;;;;;;;;;6180171;23;20021;-75
2023/09/25 07:04:19;;;;;;;5.03;3.50;;;;;;;;;;6179466;23;20469;-80
2023/09/25 07:06:45;;;;;;;6.88;4.30;;;;;;;;;;6181380;23;20040;-81
2023/09/25 07:09:14;;;;;;;6.47;4.00;;;;;;;;;;6184682;23;20529;-81
2023/09/25 07:11:40;;;;;;;3.30;3.00;;;;;;;;;;6182673;23;20521;-76
2023/09/25 07:14:06;;;;;;;3.10;2.83;;;;;;;;;;6158235;23;20095;-81
2023/09/25 07:16:35;;;;;;;3.38;2.95;;;;;;;;;;6157984;23;20017;-78
2023/09/25 07:19:00;;;;;;;3.70;2.55;;;;;;;;;;6181017;23;20021;-78
2023/09/25 07:21:27;;;;;;;5.28;3.38;;;;;;;;;;6186054;23;20013;-79
2023/09/25 07:23:53;;;;;;;4.32;3.63;;;;;;;;;;6182513;23;20457;-78
2023/09/25 07:26:19;;;;;;;4.55;4.00;;;;;;;;;;6182519;23;20419;-78
2023/09/25 07:28:46;;;;;;;10.77;4.20;;;;;;;;;;6181735;23;20040;-78
2023/09/25 07:31:17;;;;;;;3.60;2.80;;;;;;;;;;6157306;23;20013;-79
2023/09/25 07:33:43;;;;;;;3.10;2.90;;;;;;;;;;6132851;23;20099;-79
2023/09/25 07:36:10;;;;;;;3.65;3.35;;;;;;;;;;6182152;23;20083;-78
2023/09/25 07:38:36;;;;;;;6.78;3.47;;;;;;;;;;6132532;23;20020;-78
2023/09/25 07:41:03;;;;;;;3.45;3.15;;;;;;;;;;6183029;23;20012;-79
2023/09/25 07:43:29;;;;;;;5.68;3.35;;;;;;;;;;6180718;23;20076;-77
2023/09/25 07:45:55;;;;;;;3.47;3.05;;;;;;;;;;6182767;23;20013;-78
2023/09/25 07:48:21;;;;;;;4.03;3.45;;;;;;;;;;6181508;23;20493;-78
2023/09/25 07:50:47;;;;;;;3.83;3.33;;;;;;;;;;6156667;23;20517;-76
2023/09/25 07:53:13;;;;;;;4.97;3.03;;;;;;;;;;6156429;23;20091;-75
2023/09/25 07:55:40;;;;;;;2.97;2.72;;;;;;;;;;6181111;23;20036;-75
2023/09/25 07:58:07;;;;;;;8.82;4.40;;;;;;;;;;6181225;23;20067;-77
2023/09/25 08:00:40;;;;;;;7.90;3.03;;;;;;;;;;6181747;23;20013;-78
2023/09/25 08:03:06;;;;;;;4.90;3.03;;;;;;;;;;6182360;23;20056;-77
2023/09/25 08:05:33;;;;;;;3.38;2.85;;;;;;;;;;6182883;23;20103;-77
2023/09/25 08:07:59;;;;;;;2.60;2.40;;;;;;;;;;6182890;23;20023;-77
2023/09/25 08:10:25;;;;;;;4.95;3.20;;;;;;;;;;6181201;23;20071;-77
2023/09/25 08:12:51;;;;;;;2.78;2.53;;;;;;;;;;6156057;23;20404;-77
2023/09/25 08:15:17;;;;;;;3.35;3.05;;;;;;;;;;6156750;23;20524;-78
2023/09/25 08:17:43;;;;;;;4.45;3.10;;;;;;;;;;6182222;23;20017;-78
2023/09/25 08:20:20;;;;;;;3.28;3.08;;;;;;;;;;6182655;23;20016;-76
2023/09/25 08:22:48;;;;;;;3.08;2.88;;;;;;;;;;6180807;23;20025;-77
2023/09/25 08:25:14;;;;;;;2.83;2.63;;;;;;;;;;6183385;23;20896;-76
2023/09/25 08:27:40;;;;;;;3.67;3.35;;;;;;;;;;6183332;23;20013;-77
2023/09/25 08:30:06;;;;;;;3.10;2.90;;;;;;;;;;6186838;23;20060;-77
2023/09/25 08:32:32;;;;;;;3.50;3.20;;;;;;;;;;6203094;23;20088;-78
2023/09/25 08:34:58;;;;;;;4.00;3.30;;;;;;;;;;6222134;23;20023;-74
2023/09/25 08:37:24;;;;;;;8.30;3.30;;;;;;;;;;6171763;23;20055;-76
2023/09/25 08:39:54;;;;;;;3.63;3.00;;;;;;;;;;6198069;23;20027;-76
2023/09/25 08:42:23;;;;;;;4.70;3.10;;;;;;;;;;6218867;23;20024;-76
2023/09/25 08:44:53;;;;;;;3.83;3.47;;;;;;;;;;6218813;23;20016;-78
2023/09/25 08:47:19;;;;;;;3.20;2.78;;;;;;;;;;6167247;23;20008;-77
2023/09/25 08:49:52;;;;;;;3.53;3.22;;;;;;;;;;6189356;23;20099;-78
2023/09/25 08:52:22;;;;;;;2.97;2.70;;;;;;;;;;6189168;23;20099;-79
2023/09/25 08:54:51;;;;;;;4.90;3.20;;;;;;;;;;6212287;23;20095;-78
2023/09/25 08:57:20;;;;;;;3.75;3.45;;;;;;;;;;6187018;23;20267;-81
2023/09/25 08:59:47;;;;;;;3.08;2.88;;;;;;;;;;6158656;23;20090;-80
2023/09/25 09:02:13;;;;;;;2.70;2.50;;;;;;;;;;6183643;23;20020;-77
2023/09/25 09:04:39;;;;;;;5.10;3.00;;;;;;;;;;6211047;23;20020;-79
2023/09/25 09:07:06;;;;;;;4.00;3.70;;;;;;;;;;6160020;23;20477;-79
2023/09/25 09:09:32;;;;;;;6.55;3.00;;;;;;;;;;6185329;23;20020;-80
2023/09/25 09:11:58;;;;;;;8.63;4.07;;;;;;;;;;6209984;23;20012;-78
2023/09/25 09:14:31;;;;;;;6.70;5.03;;;;;;;;;;6209487;23;20009;-77
2023/09/25 09:16:58;;;;;;;6.72;3.42;;;;;;;;;;6210124;23;20412;-78
2023/09/25 09:19:24;;;;;;;3.67;3.40;;;;;;;;;;6183788;23;20012;-78
2023/09/25 09:22:01;;;;;;;3.30;3.00;;;;;;;;;;6210451;23;20021;-76
2023/09/25 09:24:28;;;;;;;3.08;2.70;;;;;;;;;;6184854;23;20013;-77
2023/09/25 09:26:54;;;;;;;3.72;3.03;;;;;;;;;;6195131;23;20035;-76
2023/09/25 09:29:21;;;;;;;4.38;3.63;;;;;;;;;;6224346;23;20012;-77
2023/09/25 09:31:47;;;;;;;3.95;2.55;;;;;;;;;;6218399;23;20016;-78
2023/09/25 09:34:14;;;;;;;2.80;2.60;;;;;;;;;;6186952;23;20008;-77
2023/09/25 09:36:49;;;;;;;3.67;2.60;;;;;;;;;;6162359;23;20066;-77
2023/09/25 09:39:16;;;;;;;3.20;2.92;;;;;;;;;;6213359;23;20020;-76
2023/09/25 09:41:42;;;;;;;3.03;2.83;;;;;;;;;;6186126;23;20016;-77
2023/09/25 09:44:08;;;;;;;3.78;2.78;;;;;;;;;;6212309;23;20074;-78
2023/09/25 09:46:35;;;;;;;5.18;3.13;;;;;;;;;;6213625;23;20015;-76
2023/09/25 09:49:02;;;;;;;6.80;4.20;;;;;;;;;;6214614;23;20019;-78
2023/09/25 09:51:28;;;;;;;6.05;3.60;;;;;;;;;;6189314;23;20012;-80
2023/09/25 09:53:54;;;;;;;5.38;2.90;;;;;;;;;;6187674;23;20103;-78
2023/09/25 09:56:21;;;;;;;3.50;2.83;;;;;;;;;;6215056;23;20009;-77
2023/09/25 09:58:47;;;;;;;2.60;2.40;;;;;;;;;;6163877;23;20042;-77
2023/09/25 10:01:13;;;;;;;2.63;2.45;;;;;;;;;;6164705;23;20017;-78
2023/09/25 10:03:39;;;;;;;5.55;3.90;;;;;;;;;;6215304;23;20520;-78
2023/09/25 10:06:07;;;;;;;3.03;2.83;;;;;;;;;;6162960;23;20523;-78
2023/09/25 10:08:33;;;;;;;3.10;2.80;;;;;;;;;;6186945;23;20020;-78
2023/09/25 10:11:15;;;;;;;3.63;3.10;;;;;;;;;;6185930;23;20008;-78
2023/09/25 10:13:41;;;;;;;3.20;2.85;;;;;;;;;;6212149;23;20493;-78
2023/09/25 10:16:07;;;;;;;4.78;3.13;;;;;;;;;;6212243;23;20013;-78
2023/09/25 10:18:34;;;;;;;3.55;3.28;;;;;;;;;;6160629;23;20108;-76
2023/09/25 10:21:21;;;;;;;3.30;3.00;;;;;;;;;;6212258;23;20341;-77
2023/09/25 10:23:48;;;;;;;4.55;3.30;;;;;;;;;;6211832;23;20051;-79
2023/09/25 10:26:22;;;;;;;3.85;3.65;;;;;;;;;;6185818;23;20019;-78
2023/09/25 10:29:07;;;;;;;4.00;3.60;;;;;;;;;;6161495;23;20112;-78
2023/09/25 10:31:34;;;;;;;3.47;3.25;;;;;;;;;;6212255;23;20013;-77
2023/09/25 10:34:00;;;;;;;3.38;3.08;;;;;;;;;;6185687;23;20038;-77
2023/09/25 10:36:37;;;;;;;3.20;3.00;;;;;;;;;;6185830;23;20013;-77
2023/09/25 10:39:07;;;;;;;3.85;3.30;;;;;;;;;;6212017;23;20020;-77
2023/09/25 10:41:33;;;;;;;3.42;3.13;;;;;;;;;;6212601;23;20021;-78
2023/09/25 10:43:59;;;;;;;4.93;3.30;;;;;;;;;;6138578;23;20027;-77
2023/09/25 10:46:25;;;;;;;5.15;2.97;;;;;;;;;;6214543;23;20504;-78
2023/09/25 10:48:53;;;;;;;3.65;3.25;;;;;;;;;;6213615;23;20013;-78
2023/09/25 10:51:20;;;;;;;2.97;2.78;;;;;;;;;;6214492;23;20019;-78
2023/09/25 10:53:46;;;;;;;3.55;3.00;;;;;;;;;;6214909;23;20036;-78
2023/09/25 10:56:12;;;;;;;3.08;2.88;;;;;;;;;;6214011;23;20020;-78
2023/09/25 10:58:38;;;;;;;5.38;2.90;;;;;;;;;;6187743;23;20012;-79
2023/09/25 11:01:05;;;;;;;3.97;3.05;;;;;;;;;;6163435;23;20016;-78
2023/09/25 11:03:31;;;;;;;3.55;3.35;;;;;;;;;;6188010;23;20025;-78
2023/09/25 11:06:00;;;;;;;4.75;3.05;;;;;;;;;;6213910;23;20029;-78
2023/09/25 11:08:27;;;;;;;3.50;3.20;;;;;;;;;;6213844;23;20012;-78
2023/09/25 11:10:53;;;;;;;3.67;3.35;;;;;;;;;;6213847;23;20040;-78
2023/09/25 11:13:20;;;;;;;6.95;3.05;;;;;;;;;;6187226;23;20013;-78
2023/09/25 11:15:46;;;;;;;4.32;3.25;;;;;;;;;;6213925;23;20008;-77
2023/09/25 11:18:13;;;;;;;6.00;3.20;;;;;;;;;;6213875;23;20458;-78
2023/09/25 11:20:41;;;;;;;4.07;3.65;;;;;;;;;;6162975;23;20023;-77
2023/09/25 11:23:11;;;;;;;3.55;3.25;;;;;;;;;;6187309;23;20099;-78
2023/09/25 11:25:43;;;;;;;4.90;3.60;;;;;;;;;;6187651;23;20016;-78
2023/09/25 11:28:13;;;;;;;3.50;3.20;;;;;;;;;;6213841;23;20017;-78
2023/09/25 11:30:40;;;;;;;3.40;3.10;;;;;;;;;;6187244;23;20013;-78
2023/09/25 11:33:09;;;;;;;3.60;3.40;;;;;;;;;;6187346;23;20032;-79
2023/09/25 11:35:37;;;;;;;4.32;2.95;;;;;;;;;;6187420;23;20391;-79
2023/09/25 11:38:11;;;;;;;3.70;2.90;;;;;;;;;;6213148;23;20093;-77
2023/09/25 11:40:38;;;;;;;2.78;2.58;;;;;;;;;;6213115;23;20016;-77
2023/09/25 11:43:04;;;;;;;2.47;2.28;;;;;;;;;;6213831;23;20024;-77
2023/09/25 11:45:30;;;;;;;2.55;2.38;;;;;;;;;;6213836;23;20019;-78
2023/09/25 11:47:56;;;;;;;2.55;2.30;;;;;;;;;;6213829;23;20473;-78
2023/09/25 11:50:22;;;;;;;3.05;2.50;;;;;;;;;;6213845;23;20013;-78
2023/09/25 11:52:48;;;;;;;3.83;2.38;;;;;;;;;;6214096;23;20043;-78
2023/09/25 11:55:15;;;;;;;2.53;2.33;;;;;;;;;;6187415;23;20009;-78
2023/09/25 11:57:44;;;;;;;2.50;2.30;;;;;;;;;;6215018;23;20012;-78
2023/09/25 12:00:16;;;;;;;2.75;2.38;;;;;;;;;;6163414;23;20019;-77
2023/09/25 12:02:48;;;;;;;2.13;1.98;;;;;;;;;;6213994;23;20374;-78
2023/09/25 12:05:15;;;;;;;2.15;2.00;;;;;;;;;;6187260;23;20014;-77
2023/09/25 12:07:41;;;;;;;2.67;2.03;;;;;;;;;;6163290;23;20063;-77
2023/09/25 12:10:08;;;;;;;2.38;2.17;;;;;;;;;;6213909;23;20020;-77
2023/09/25 12:12:38;;;;;;;2.47;2.20;;;;;;;;;;6188521;23;20017;-77
2023/09/25 12:15:05;;;;;;;2.60;2.20;;;;;;;;;;6214985;23;20064;-78
2023/09/25 12:17:31;;;;;;;3.78;2.38;;;;;;;;;;6162506;23;20028;-78
2023/09/25 12:19:59;;;;;;;2.50;2.25;;;;;;;;;;6214069;23;20009;-77
2023/09/25 12:22:26;;;;;;;2.95;2.70;;;;;;;;;;6213639;23;20059;-78
2023/09/25 12:24:54;;;;;;;2.95;2.75;;;;;;;;;;6214155;23;20017;-78
2023/09/25 12:27:20;;;;;;;3.58;2.60;;;;;;;;;;6187198;23;20084;-77
2023/09/25 12:29:47;;;;;;;2.55;2.35;;;;;;;;;;6187219;23;20016;-78
2023/09/25 12:32:13;;;;;;;2.63;1.95;;;;;;;;;;6213901;23;20099;-78
2023/09/25 12:34:39;;;;;;;2.40;2.30;;;;;;;;;;6162835;23;20028;-77
2023/09/25 12:37:05;;;;;;;4.35;2.38;;;;;;;;;;6162297;23;20016;-78
2023/09/25 12:39:31;;;;;;;3.42;2.35;;;;;;;;;;6214738;23;20060;-78
2023/09/25 12:41:57;;;;;;;2.60;2.13;;;;;;;;;;6218768;23;20017;-77
2023/09/25 12:44:24;;;;;;;3.65;2.88;;;;;;;;;;6198626;23;20017;-78
2023/09/25 12:46:51;;;;;;;2.63;2.42;;;;;;;;;;6196416;23;20008;-79
2023/09/25 12:49:19;;;;;;;3.30;2.90;;;;;;;;;;6213533;23;20013;-78
2023/09/25 12:51:45;;;;;;;5.43;3.10;;;;;;;;;;6187859;23;20020;-78
2023/09/25 12:54:11;;;;;;;3.17;2.97;;;;;;;;;;6161471;23;20021;-78
2023/09/25 12:56:38;;;;;;;4.38;3.22;;;;;;;;;;6213333;23;20091;-76
2023/09/25 12:59:04;;;;;;;5.28;2.83;;;;;;;;;;6186817;23;20013;-77
2023/09/25 13:01:30;;;;;;;4.88;2.95;;;;;;;;;;6213795;23;20009;-78
2023/09/25 13:03:56;;;;;;;7.30;3.50;;;;;;;;;;6213112;23;20167;-77
2023/09/25 13:06:23;;;;;;;3.20;2.58;;;;;;;;;;6161324;23;20020;-77
2023/09/25 13:08:51;;;;;;;7.53;3.65;;;;;;;;;;6213003;23;20016;-77
2023/09/25 13:11:17;;;;;;;6.82;3.40;;;;;;;;;;6186751;23;20019;-77
2023/09/25 13:13:43;;;;;;;4.72;3.67;;;;;;;;;;6136755;23;20032;-77
2023/09/25 13:16:09;;;;;;;4.57;3.45;;;;;;;;;;6212605;23;20453;-78
2023/09/25 13:18:35;;;;;;;9.90;5.07;;;;;;;;;;6213182;23;20461;-77
2023/09/25 13:21:01;;;;;;;5.93;3.55;;;;;;;;;;6213348;23;20013;-76
2023/09/25 13:23:27;;;;;;;4.93;3.03;;;;;;;;;;6212947;23;20027;-76
2023/09/25 13:25:54;;;;;;;3.92;2.65;;;;;;;;;;6213147;23;20036;-77
2023/09/25 13:28:19;;;;;;;3.40;2.50;;;;;;;;;;6212847;23;20418;-77
2023/09/25 13:30:45;;;;;;;4.07;2.70;;;;;;;;;;6186051;23;20078;-76
2023/09/25 13:33:11;;;;;;;7.82;2.80;;;;;;;;;;6212266;23;20432;-76
2023/09/25 13:35:37;;;;;;;6.32;2.65;;;;;;;;;;6161056;23;20365;-76
2023/09/25 13:38:04;;;;;;;2.65;2.45;;;;;;;;;;6185866;23;20471;-77
2023/09/25 13:40:29;;;;;;;5.38;2.60;;;;;;;;;;6212422;23;20020;-75
2023/09/25 13:42:55;;;;;;;5.43;2.33;;;;;;;;;;6212613;23;20024;-76
2023/09/25 13:45:22;;;;;;;5.45;2.50;;;;;;;;;;6211955;23;20413;-75
2023/09/25 13:47:48;;;;;;;4.13;2.40;;;;;;;;;;6160989;23;20012;-75
2023/09/25 13:50:14;;;;;;;5.47;2.20;;;;;;;;;;6212031;23;20080;-76
2023/09/25 13:52:41;;;;;;;5.22;2.40;;;;;;;;;;6212107;23;20070;-76
2023/09/25 13:55:07;;;;;;;3.92;2.33;;;;;;;;;;6212097;23;20047;-76
2023/09/25 13:57:33;;;;;;;2.40;2.20;;;;;;;;;;6161348;23;20052;-76
2023/09/25 13:59:59;;;;;;;5.55;2.08;;;;;;;;;;6186440;23;20091;-76
2023/09/25 14:02:25;;;;;;;2.40;2.30;;;;;;;;;;6185976;23;20093;-76
2023/09/25 14:04:51;;;;;;;2.50;2.30;;;;;;;;;;6186027;23;20013;-76
2023/09/25 14:07:18;;;;;;;3.67;2.15;;;;;;;;;;6185648;23;20468;-76
2023/09/25 14:09:44;;;;;;;3.00;2.10;;;;;;;;;;6212313;23;20017;-77
2023/09/25 14:12:10;;;;;;;7.10;3.35;;;;;;;;;;6212109;23;20063;-76
2023/09/25 14:14:45;;;;;;;9.85;3.15;;;;;;;;;;6185897;23;20134;-74
2023/09/25 14:17:11;;;;;;;2.92;2.58;;;;;;;;;;6211819;23;20044;-77
2023/09/25 14:19:37;;;;;;;2.95;2.50;;;;;;;;;;6212280;23;20591;-76
2023/09/25 14:22:03;;;;;;;2.50;2.30;;;;;;;;;;6211749;23;20071;-76
2023/09/25 14:24:30;;;;;;;4.00;2.30;;;;;;;;;;6212052;23;20028;-77
2023/09/25 14:27:05;;;;;;;2.60;2.40;;;;;;;;;;6185639;23;20015;-76
2023/09/25 14:29:31;;;;;;;2.65;2.17;;;;;;;;;;6162515;23;20012;-75
2023/09/25 14:31:57;;;;;;;3.13;1.98;;;;;;;;;;6185707;23;20364;-76
2023/09/25 14:34:24;;;;;;;3.00;2.35;;;;;;;;;;6184916;23;20027;-76
2023/09/25 14:36:50;;;;;;;5.32;2.65;;;;;;;;;;6161073;23;20020;-76
2023/09/25 14:39:16;;;;;;;6.07;2.50;;;;;;;;;;6185525;23;20087;-76